createdAt,value
2022-10-03T00:01:44.333Z,13.20
2022-10-03T00:04:23.370Z,13.20
2022-10-03T00:07:03.694Z,13.20
2022-10-03T00:09:49.774Z,13.20
2022-10-03T00:12:36.575Z,13.20
2022-10-03T00:15:12.131Z,13.30
2022-10-03T00:17:49.821Z,13.30
2022-10-03T00:20:37.727Z,13.30
2022-10-03T00:23:14.859Z,13.30
2022-10-03T00:25:48.672Z,13.30
2022-10-03T00:28:28.599Z,13.30
2022-10-03T00:31:10.112Z,13.30
2022-10-03T00:33:50.993Z,13.30
2022-10-03T00:36:27.075Z,13.30
2022-10-03T00:39:32.595Z,13.30
2022-10-03T00:42:39.965Z,13.30
2022-10-03T00:45:49.658Z,13.30
2022-10-03T00:48:53.953Z,13.30
2022-10-03T00:51:34.804Z,13.20
2022-10-03T00:54:25.806Z,13.20
2022-10-03T00:57:08.132Z,13.20
2022-10-03T00:59:50.550Z,13.20
2022-10-03T01:02:29.387Z,13.20
2022-10-03T01:05:04.256Z,13.20
2022-10-03T01:07:53.334Z,13.20
2022-10-03T01:10:27.712Z,13.20
2022-10-03T01:13:13.976Z,13.20
2022-10-03T01:15:51.469Z,13.20
2022-10-03T01:18:29.935Z,13.20
2022-10-03T01:21:08.079Z,13.20
2022-10-03T01:24:03.263Z,13.20
2022-10-03T01:26:59.794Z,13.20
2022-10-03T01:29:57.226Z,13.20
2022-10-03T01:32:30.648Z,13.20
2022-10-03T01:35:07.690Z,13.20
2022-10-03T01:37:51.311Z,13.20
2022-10-03T01:40:27.143Z,13.20
2022-10-03T01:43:03.848Z,13.20
2022-10-03T01:45:47.566Z,13.20
2022-10-03T01:48:23.254Z,13.20
2022-10-03T01:51:01.452Z,13.20
2022-10-03T01:53:41.856Z,13.20
2022-10-03T01:56:16.324Z,13.20
2022-10-03T01:58:58.053Z,13.20
2022-10-03T02:01:35.773Z,13.10
2022-10-03T02:04:13.073Z,13.10
2022-10-03T02:06:51.327Z,13.10
2022-10-03T02:09:29.358Z,13.10
2022-10-03T02:12:08.524Z,13.10
2022-10-03T02:14:46.796Z,13.10
2022-10-03T02:17:30.607Z,13.10
2022-10-03T02:20:08.518Z,13.10
2022-10-03T02:22:43.576Z,13.10
2022-10-03T02:25:24.846Z,13.10
2022-10-03T02:28:30.524Z,13.10
2022-10-03T02:31:21.759Z,13.10
2022-10-03T02:34:15.940Z,13.10
2022-10-03T02:37:11.199Z,13.10
2022-10-03T02:40:20.761Z,13.10
2022-10-03T02:43:26.395Z,13.10
2022-10-03T02:46:26.092Z,13.10
2022-10-03T02:49:19.767Z,13.10
2022-10-03T02:52:05.537Z,13.10
2022-10-03T02:54:59.679Z,13.10
2022-10-03T02:58:11.122Z,13.10
2022-10-03T03:01:02.425Z,13.10
2022-10-03T03:03:54.629Z,13.10
2022-10-03T03:06:58.246Z,13.10
2022-10-03T03:09:47.563Z,13.10
2022-10-03T03:12:45.308Z,13.10
2022-10-03T03:15:41.854Z,13.10
2022-10-03T03:18:22.534Z,13.10
2022-10-03T03:21:03.016Z,13.10
2022-10-03T03:23:44.482Z,13.10
2022-10-03T03:26:35.524Z,13.10
2022-10-03T03:29:12.797Z,13.10
2022-10-03T03:31:47.718Z,13.10
2022-10-03T03:34:22.557Z,13.10
2022-10-03T03:36:59.507Z,13.00
2022-10-03T03:39:58.423Z,13.00
2022-10-03T03:42:48.041Z,13.00
2022-10-03T03:45:45.578Z,13.00
2022-10-03T03:48:39.679Z,13.00
2022-10-03T03:51:22.685Z,12.90
2022-10-03T03:54:23.222Z,13.00
2022-10-03T03:57:14.328Z,12.90
2022-10-03T04:00:03.197Z,13.00
2022-10-03T04:02:47.560Z,13.00
2022-10-03T04:05:27.797Z,13.00
2022-10-03T04:08:13.702Z,13.00
2022-10-03T04:10:54.295Z,13.00
2022-10-03T04:13:36.668Z,13.00
2022-10-03T04:16:39.549Z,13.00
2022-10-03T04:19:14.361Z,13.00
2022-10-03T04:21:59.539Z,13.00
2022-10-03T04:25:05.456Z,13.00
2022-10-03T04:28:00.769Z,13.00
2022-10-03T04:30:38.561Z,13.00
2022-10-03T04:33:21.756Z,13.00
2022-10-03T04:36:28.530Z,13.00
2022-10-03T04:39:05.736Z,13.00
2022-10-03T04:41:43.189Z,13.00
2022-10-03T04:44:29.387Z,13.00
2022-10-03T04:47:03.223Z,13.00
2022-10-03T04:49:35.875Z,13.00
2022-10-03T04:52:14.532Z,13.00
2022-10-03T04:54:50.919Z,13.00
2022-10-03T04:57:29.535Z,13.00
2022-10-03T05:00:08.788Z,13.00
2022-10-03T05:02:47.567Z,13.00
2022-10-03T05:05:43.183Z,13.00
2022-10-03T05:08:20.873Z,13.00
2022-10-03T05:11:08.960Z,13.00
2022-10-03T05:13:59.833Z,13.00
2022-10-03T05:16:39.229Z,13.00
2022-10-03T05:19:38.865Z,12.90
2022-10-03T05:22:15.533Z,12.90
2022-10-03T05:24:51.269Z,13.00
2022-10-03T05:27:26.144Z,13.00
2022-10-03T05:30:03.098Z,13.00
2022-10-03T05:32:38.569Z,13.00
2022-10-03T05:35:24.947Z,13.00
2022-10-03T05:38:19.129Z,13.00
2022-10-03T05:41:02.017Z,12.90
2022-10-03T05:43:45.546Z,12.90
2022-10-03T05:46:24.003Z,12.90
2022-10-03T05:49:03.948Z,12.90
2022-10-03T05:51:53.878Z,12.90
2022-10-03T05:54:54.965Z,12.90
2022-10-03T05:57:36.389Z,12.90
2022-10-03T06:00:11.520Z,12.90
2022-10-03T06:03:16.381Z,12.90
2022-10-03T06:06:07.961Z,12.90
2022-10-03T06:09:01.251Z,12.90
2022-10-03T06:12:00.861Z,12.90
2022-10-03T06:14:38.699Z,13.00
2022-10-03T06:17:32.888Z,13.00
2022-10-03T06:20:17.416Z,13.00
2022-10-03T06:23:12.995Z,13.00
2022-10-03T06:26:05.478Z,13.00
2022-10-03T06:29:18.110Z,13.00
2022-10-03T06:32:34.393Z,13.10
2022-10-03T06:35:43.223Z,13.20
2022-10-03T06:38:37.356Z,13.20
2022-10-03T06:41:47.913Z,13.30
2022-10-03T06:44:39.267Z,13.30
2022-10-03T06:47:27.008Z,13.30
2022-10-03T06:50:33.644Z,13.30
2022-10-03T06:53:35.704Z,13.30
2022-10-03T06:56:46.381Z,13.30
2022-10-03T07:00:01.358Z,13.30
2022-10-03T07:03:21.639Z,13.30
2022-10-03T07:06:22.407Z,13.30
2022-10-03T07:09:41.824Z,13.30
2022-10-03T07:12:36.154Z,13.40
2022-10-03T07:15:50.188Z,13.40
2022-10-03T07:18:54.624Z,13.40
2022-10-03T07:22:01.123Z,13.40
2022-10-03T07:24:53.364Z,13.50
2022-10-03T07:27:34.279Z,13.50
2022-10-03T07:30:17.377Z,13.50
2022-10-03T07:33:28.488Z,13.50
2022-10-03T07:36:41.293Z,13.60
2022-10-03T07:39:56.735Z,13.70
2022-10-03T07:43:01.771Z,13.80
2022-10-03T07:45:37.985Z,13.90
2022-10-03T07:48:35.592Z,14.00
2022-10-03T07:51:15.009Z,14.10
2022-10-03T07:54:24.442Z,14.10
2022-10-03T07:57:04.982Z,14.10
2022-10-03T08:00:18.409Z,14.20
2022-10-03T08:03:22.851Z,14.20
2022-10-03T08:06:23.570Z,14.30
2022-10-03T08:09:33.528Z,14.30
2022-10-03T08:12:34.383Z,14.40
2022-10-03T08:15:21.557Z,14.60
2022-10-03T08:18:37.532Z,14.80
2022-10-03T08:21:11.365Z,14.90
2022-10-03T08:24:12.583Z,15.00
2022-10-03T08:27:12.944Z,15.00
2022-10-03T08:30:14.051Z,15.10
2022-10-03T08:33:21.093Z,15.20
2022-10-03T08:36:37.486Z,15.30
2022-10-03T08:39:21.680Z,15.50
2022-10-03T08:42:31.227Z,15.60
2022-10-03T08:48:42.593Z,15.40
2022-10-03T08:51:47.735Z,15.30
2022-10-03T08:54:40.887Z,15.10
2022-10-03T08:57:34.227Z,15.00
2022-10-03T09:00:17.449Z,15.00
2022-10-03T09:03:35.267Z,15.00
2022-10-03T09:06:30.242Z,15.10
2022-10-03T09:09:23.704Z,15.30
2022-10-03T09:12:16.270Z,15.40
2022-10-03T09:15:12.548Z,15.40
2022-10-03T09:18:10.459Z,15.30
2022-10-03T09:21:12.155Z,15.30
2022-10-03T09:24:14.232Z,15.20
2022-10-03T09:27:12.402Z,15.10
2022-10-03T09:30:04.428Z,15.00
2022-10-03T09:32:55.369Z,14.90
2022-10-03T09:35:52.812Z,14.80
2022-10-03T09:38:56.570Z,14.70
2022-10-03T09:42:06.325Z,14.70
2022-10-03T09:45:15.035Z,14.60
2022-10-03T09:48:20.495Z,14.60
2022-10-03T09:51:22.177Z,14.70
2022-10-03T09:54:24.713Z,15.60
2022-10-03T09:57:40.352Z,17.40
2022-10-03T10:00:28.454Z,19.40
2022-10-03T10:03:32.842Z,21.90
2022-10-03T10:06:49.626Z,22.90
2022-10-03T10:09:53.569Z,23.70
2022-10-03T10:13:00.713Z,23.50
2022-10-03T10:16:08.442Z,22.70
2022-10-03T10:19:06.981Z,21.70
2022-10-03T10:21:57.590Z,20.60
2022-10-03T10:25:01.962Z,19.80
2022-10-03T10:28:14.742Z,19.10
2022-10-03T10:31:27.210Z,18.60
2022-10-03T10:34:32.434Z,18.20
2022-10-03T10:37:46.294Z,19.10
2022-10-03T10:40:44.480Z,20.40
2022-10-03T10:43:44.621Z,21.90
2022-10-03T10:46:49.560Z,24.10
2022-10-03T10:49:57.425Z,26.30
2022-10-03T10:53:15.628Z,27.80
2022-10-03T10:56:18.966Z,27.80
2022-10-03T10:59:23.472Z,26.40
2022-10-03T11:02:39.088Z,24.70
2022-10-03T11:05:43.856Z,23.10
2022-10-03T11:08:50.743Z,21.90
2022-10-03T11:12:02.575Z,21.00
2022-10-03T11:15:10.739Z,20.50
2022-10-03T11:18:02.411Z,20.80
2022-10-03T11:21:08.775Z,22.60
2022-10-03T11:24:07.320Z,24.80
2022-10-03T11:27:06.744Z,27.00
2022-10-03T11:30:19.417Z,28.60
2022-10-03T11:33:42.079Z,28.90
2022-10-03T11:36:45.813Z,27.50
2022-10-03T11:39:23.392Z,25.90
2022-10-03T11:41:57.243Z,25.60
2022-10-03T11:44:28.729Z,26.20
2022-10-03T11:47:33.000Z,27.30
2022-10-03T11:50:29.280Z,28.70
2022-10-03T11:53:17.943Z,30.30
2022-10-03T11:55:52.425Z,31.10
2022-10-03T11:58:32.248Z,31.80
2022-10-03T12:01:24.015Z,31.90
2022-10-03T12:04:00.593Z,32.40
2022-10-03T12:07:11.260Z,31.50
2022-10-03T12:09:55.436Z,29.80
2022-10-03T12:12:32.867Z,28.20
2022-10-03T12:15:06.945Z,26.70
2022-10-03T12:17:37.926Z,25.30
2022-10-03T12:20:16.848Z,24.20
2022-10-03T12:22:53.031Z,23.20
2022-10-03T12:25:24.191Z,22.20
2022-10-03T12:28:02.622Z,21.40
2022-10-03T12:30:47.160Z,20.70
2022-10-03T12:33:37.662Z,20.10
2022-10-03T12:36:13.779Z,19.60
2022-10-03T12:38:54.838Z,19.20
2022-10-03T12:41:56.971Z,18.90
2022-10-03T12:44:40.754Z,18.70
2022-10-03T12:47:43.946Z,18.50
2022-10-03T12:50:28.913Z,18.40
2022-10-03T12:53:21.117Z,18.30
2022-10-03T12:55:59.782Z,18.30
2022-10-03T12:58:36.226Z,18.40
2022-10-03T13:01:12.321Z,18.70
2022-10-03T13:03:52.001Z,19.30
2022-10-03T13:07:02.299Z,19.90
2022-10-03T13:09:51.554Z,20.40
2022-10-03T13:12:33.906Z,20.50
2022-10-03T13:15:41.409Z,20.40
2022-10-03T13:18:30.163Z,20.50
2022-10-03T13:21:26.674Z,21.30
2022-10-03T13:24:01.013Z,22.20
2022-10-03T13:26:43.154Z,23.20
2022-10-03T13:29:23.576Z,23.40
2022-10-03T13:32:17.371Z,24.30
2022-10-03T13:35:20.348Z,25.40
2022-10-03T13:38:16.575Z,26.30
2022-10-03T13:40:49.362Z,27.30
2022-10-03T13:43:22.005Z,27.70
2022-10-03T13:45:56.819Z,28.00
2022-10-03T13:48:28.034Z,28.10
2022-10-03T13:51:05.458Z,28.20
2022-10-03T13:53:53.488Z,28.30
2022-10-03T13:56:36.536Z,28.30
2022-10-03T13:59:14.186Z,28.30
2022-10-03T14:01:51.484Z,28.30
2022-10-03T14:04:37.532Z,28.30
2022-10-03T14:07:14.353Z,28.00
2022-10-03T14:10:09.654Z,27.40
2022-10-03T14:12:56.497Z,26.30
2022-10-03T14:15:47.210Z,25.30
2022-10-03T14:18:44.018Z,24.20
2022-10-03T14:21:48.859Z,23.40
2022-10-03T14:24:52.812Z,22.50
2022-10-03T14:27:41.887Z,21.80
2022-10-03T14:30:15.439Z,21.20
2022-10-03T14:32:53.353Z,20.70
2022-10-03T14:35:37.928Z,20.40
2022-10-03T14:38:21.314Z,20.10
2022-10-03T14:40:53.955Z,19.80
2022-10-03T14:43:34.831Z,19.60
2022-10-03T14:46:05.321Z,19.40
2022-10-03T14:48:38.780Z,19.20
2022-10-03T14:51:16.177Z,19.10
2022-10-03T14:53:52.197Z,18.90
2022-10-03T14:56:24.311Z,18.80
2022-10-03T14:58:54.889Z,18.70
2022-10-03T15:01:25.362Z,18.60
2022-10-03T15:04:01.623Z,18.50
2022-10-03T15:06:36.201Z,18.40
2022-10-03T15:09:10.164Z,18.30
2022-10-03T15:11:48.699Z,18.30
2022-10-03T15:14:17.140Z,18.20
2022-10-03T15:16:50.914Z,18.00
2022-10-03T15:19:22.916Z,17.90
2022-10-03T15:21:53.959Z,17.80
2022-10-03T15:24:26.114Z,17.70
2022-10-03T15:27:02.482Z,17.50
2022-10-03T15:29:32.246Z,17.40
2022-10-03T15:32:01.082Z,17.30
2022-10-03T15:34:33.675Z,17.20
2022-10-03T15:37:10.738Z,17.20
2022-10-03T15:39:42.937Z,17.10
2022-10-03T15:42:26.467Z,17.10
2022-10-03T15:44:57.887Z,17.00
2022-10-03T15:47:28.028Z,17.00
2022-10-03T15:50:00.991Z,16.90
2022-10-03T15:52:40.937Z,16.90
2022-10-03T15:55:16.474Z,16.90
2022-10-03T15:57:47.779Z,16.90
2022-10-03T16:00:24.625Z,16.90
2022-10-03T16:02:59.850Z,17.00
2022-10-03T16:05:28.438Z,16.90
2022-10-03T16:08:02.481Z,16.90
2022-10-03T16:10:36.617Z,16.90
2022-10-03T16:13:19.238Z,16.80
2022-10-03T16:16:10.911Z,16.80
2022-10-03T16:18:51.829Z,16.70
2022-10-03T16:21:33.505Z,16.70
2022-10-03T16:24:04.321Z,16.60
2022-10-03T16:26:36.767Z,16.50
2022-10-03T16:29:14.084Z,16.50
2022-10-03T16:31:54.783Z,16.50
2022-10-03T16:34:26.634Z,16.40
2022-10-03T16:36:55.529Z,16.40
2022-10-03T16:39:26.505Z,16.30
2022-10-03T16:41:56.193Z,16.20
2022-10-03T16:44:32.207Z,16.10
2022-10-03T16:47:04.292Z,15.90
2022-10-03T16:49:59.930Z,15.80
2022-10-03T16:52:34.501Z,15.70
2022-10-03T16:55:06.860Z,15.50
2022-10-03T16:57:44.090Z,15.40
2022-10-03T17:00:24.704Z,15.30
2022-10-03T17:02:55.200Z,15.20
2022-10-03T17:05:24.130Z,15.10
2022-10-03T17:07:55.032Z,15.00
2022-10-03T17:10:30.353Z,15.00
2022-10-03T17:13:03.539Z,14.90
2022-10-03T17:15:38.965Z,14.80
2022-10-03T17:18:24.706Z,14.70
2022-10-03T17:20:56.785Z,14.70
2022-10-03T17:23:31.866Z,14.60
2022-10-03T17:26:06.329Z,14.50
2022-10-03T17:28:45.509Z,14.50
2022-10-03T17:31:30.260Z,14.40
2022-10-03T17:34:09.465Z,14.30
2022-10-03T17:36:59.989Z,14.30
2022-10-03T17:39:42.880Z,14.20
2022-10-03T17:42:24.837Z,14.20
2022-10-03T17:45:00.639Z,14.20
2022-10-03T17:47:39.186Z,14.10
2022-10-03T17:50:14.543Z,14.00
2022-10-03T17:52:45.378Z,14.00
2022-10-03T17:55:19.476Z,13.90
2022-10-03T17:57:50.806Z,13.90
2022-10-03T18:00:21.772Z,13.80
2022-10-03T18:02:59.756Z,13.80
2022-10-03T18:05:30.701Z,13.80
2022-10-03T18:08:05.371Z,13.70
2022-10-03T18:10:37.630Z,13.60
2022-10-03T18:13:15.732Z,13.50
2022-10-03T18:16:11.270Z,13.50
2022-10-03T18:19:11.828Z,13.40
2022-10-03T18:22:09.348Z,13.40
2022-10-03T18:24:54.025Z,13.30
2022-10-03T18:27:54.338Z,13.30
2022-10-03T18:30:27.446Z,13.20
2022-10-03T18:33:01.375Z,13.30
2022-10-03T18:35:35.042Z,13.30
2022-10-03T18:38:15.117Z,13.30
2022-10-03T18:40:48.257Z,13.20
2022-10-03T18:43:29.848Z,13.20
2022-10-03T18:46:16.263Z,13.20
2022-10-03T18:49:15.768Z,13.10
2022-10-03T18:51:45.607Z,13.20
2022-10-03T18:54:27.507Z,13.10
2022-10-03T18:57:07.503Z,13.10
2022-10-03T18:59:48.379Z,13.10
2022-10-03T19:02:22.654Z,13.00
2022-10-03T19:04:54.603Z,13.00
2022-10-03T19:07:26.747Z,13.00
2022-10-03T19:10:24.189Z,13.00
2022-10-03T19:13:00.688Z,12.90
2022-10-03T19:15:47.854Z,12.90
2022-10-03T19:18:26.215Z,13.30
2022-10-03T19:20:56.877Z,12.80
2022-10-03T19:23:30.949Z,12.80
2022-10-03T19:26:02.915Z,12.80
2022-10-03T19:28:33.567Z,12.70
2022-10-03T19:31:07.463Z,12.70
2022-10-03T19:33:43.420Z,12.70
2022-10-03T19:36:16.559Z,12.70
2022-10-03T19:38:48.034Z,12.70
2022-10-03T19:41:27.189Z,12.60
2022-10-03T19:43:56.976Z,12.60
2022-10-03T19:46:51.782Z,12.60
2022-10-03T19:49:36.413Z,12.50
2022-10-03T19:52:15.360Z,12.40
2022-10-03T19:54:52.639Z,12.40
2022-10-03T19:57:24.919Z,12.40
2022-10-03T19:59:55.649Z,12.30
2022-10-03T20:02:25.642Z,12.20
2022-10-03T20:04:57.319Z,12.20
2022-10-03T20:07:44.664Z,12.20
2022-10-03T20:10:47.503Z,12.20
2022-10-03T20:13:16.193Z,12.20
2022-10-03T20:15:47.064Z,12.20
2022-10-03T20:18:22.496Z,12.20
2022-10-03T20:20:53.667Z,12.20
2022-10-03T20:23:24.761Z,12.20
2022-10-03T20:25:59.560Z,12.20
2022-10-03T20:28:44.095Z,12.20
2022-10-03T20:31:12.917Z,12.20
2022-10-03T20:33:41.042Z,12.20
2022-10-03T20:36:16.306Z,12.20
2022-10-03T20:39:03.014Z,12.20
2022-10-03T20:41:40.719Z,12.20
2022-10-03T20:44:16.084Z,12.10
2022-10-03T20:46:47.890Z,12.10
2022-10-03T20:49:27.546Z,12.10
2022-10-03T20:52:02.518Z,12.00
2022-10-03T20:54:36.475Z,11.90
2022-10-03T20:57:14.871Z,11.90
2022-10-03T20:59:47.348Z,11.90
2022-10-03T21:02:25.147Z,11.90
2022-10-03T21:04:58.071Z,11.90
2022-10-03T21:07:33.284Z,11.90
2022-10-03T21:10:09.533Z,11.80
2022-10-03T21:12:44.581Z,11.80
2022-10-03T21:15:16.056Z,11.80
2022-10-03T21:17:46.452Z,11.80
2022-10-03T21:20:19.802Z,11.80
2022-10-03T21:22:50.685Z,11.80
2022-10-03T21:25:22.337Z,11.80
2022-10-03T21:27:55.231Z,11.90
2022-10-03T21:30:35.676Z,11.80
2022-10-03T21:33:12.471Z,11.90
2022-10-03T21:35:42.996Z,11.80
2022-10-03T21:38:20.182Z,11.70
2022-10-03T21:41:14.418Z,11.70
2022-10-03T21:43:52.409Z,11.70
2022-10-03T21:46:33.117Z,11.70
2022-10-03T21:49:15.820Z,11.70
2022-10-03T21:52:01.238Z,11.70
2022-10-03T21:54:37.829Z,11.70
2022-10-03T21:57:15.319Z,11.70
2022-10-03T22:00:06.776Z,11.80
2022-10-03T22:02:44.579Z,11.70
2022-10-03T22:05:19.815Z,11.70
2022-10-03T22:07:47.813Z,11.70
2022-10-03T22:10:21.717Z,11.70
2022-10-03T22:12:52.631Z,11.70
2022-10-03T22:15:38.123Z,11.60
2022-10-03T22:18:11.420Z,11.60
2022-10-03T22:20:53.958Z,11.60
2022-10-03T22:23:33.557Z,11.60
2022-10-03T22:26:15.257Z,11.60
2022-10-03T22:28:52.878Z,11.50
2022-10-03T22:31:30.723Z,11.50
2022-10-03T22:34:14.868Z,11.50
2022-10-03T22:36:43.923Z,11.50
2022-10-03T22:39:15.496Z,11.40
2022-10-03T22:41:46.707Z,11.40
2022-10-03T22:44:17.258Z,11.30
2022-10-03T22:46:51.138Z,11.30
2022-10-03T22:49:22.332Z,11.30
2022-10-03T22:51:54.340Z,11.20
2022-10-03T22:54:24.214Z,11.20
2022-10-03T22:56:55.825Z,11.10
2022-10-03T22:59:27.080Z,11.10
2022-10-03T23:01:59.869Z,11.10
2022-10-03T23:04:33.463Z,11.20
2022-10-03T23:07:37.111Z,11.10
2022-10-03T23:10:17.284Z,11.20
2022-10-03T23:12:50.204Z,11.10
2022-10-03T23:15:20.964Z,11.10
2022-10-03T23:18:14.973Z,11.10
2022-10-03T23:21:01.375Z,11.10
2022-10-03T23:23:35.819Z,11.20
2022-10-03T23:26:43.801Z,11.20
2022-10-03T23:29:14.208Z,11.20
2022-10-03T23:32:01.304Z,11.20
2022-10-03T23:35:06.273Z,11.20
2022-10-03T23:37:46.050Z,11.10
2022-10-03T23:40:27.527Z,11.10
2022-10-03T23:43:06.487Z,11.00
2022-10-03T23:45:36.092Z,11.00
2022-10-03T23:48:10.119Z,11.00
2022-10-03T23:50:43.377Z,11.00
2022-10-03T23:53:21.408Z,11.00
2022-10-03T23:55:49.421Z,11.00
2022-10-03T23:58:25.620Z,10.90
